sensor_id;sensor_type;location;lat;lon;timestamp;P1;durP1;ratioP1;P2;durP2;ratioP2
2858;SDS011;1437;53.250;10.406;2023-07-31T00:01:33;4.73;;;1.80;;
2858;SDS011;1437;53.250;10.406;2023-07-31T00:04:01;7.13;;;1.87;;
2858;SDS011;1437;53.250;10.406;2023-07-31T00:06:29;7.50;;;1.40;;
2858;SDS011;1437;53.250;10.406;2023-07-31T00:08:56;3.80;;;2.00;;
2858;SDS011;1437;53.250;10.406;2023-07-31T00:11:25;4.00;;;1.60;;
2858;SDS011;1437;53.250;10.406;2023-07-31T00:13:53;2.73;;;1.40;;
2858;SDS011;1437;53.250;10.406;2023-07-31T00:16:23;2.50;;;1.40;;
2858;SDS011;1437;53.250;10.406;2023-07-31T00:18:50;5.53;;;1.73;;
2858;SDS011;1437;53.250;10.406;2023-07-31T00:21:18;5.20;;;2.03;;
2858;SDS011;1437;53.250;10.406;2023-07-31T00:23:45;4.40;;;1.67;;
2858;SDS011;1437;53.250;10.406;2023-07-31T00:26:13;5.40;;;1.93;;
2858;SDS011;1437;53.250;10.406;2023-07-31T00:28:42;5.40;;;2.13;;
2858;SDS011;1437;53.250;10.406;2023-07-31T00:31:09;4.37;;;1.43;;
2858;SDS011;1437;53.250;10.406;2023-07-31T00:33:37;6.13;;;2.10;;
2858;SDS011;1437;53.250;10.406;2023-07-31T00:36:05;5.57;;;1.50;;
2858;SDS011;1437;53.250;10.406;2023-07-31T00:38:32;5.00;;;2.03;;
2858;SDS011;1437;53.250;10.406;2023-07-31T00:41:00;4.93;;;1.87;;
2858;SDS011;1437;53.250;10.406;2023-07-31T00:43:27;8.53;;;2.13;;
2858;SDS011;1437;53.250;10.406;2023-07-31T00:45:56;4.13;;;1.67;;
2858;SDS011;1437;53.250;10.406;2023-07-31T00:48:24;5.53;;;1.63;;
2858;SDS011;1437;53.250;10.406;2023-07-31T00:50:51;5.37;;;1.53;;
2858;SDS011;1437;53.250;10.406;2023-07-31T00:53:18;3.93;;;1.20;;
2858;SDS011;1437;53.250;10.406;2023-07-31T00:55:46;4.67;;;2.00;;
2858;SDS011;1437;53.250;10.406;2023-07-31T00:58:13;4.70;;;1.70;;
2858;SDS011;1437;53.250;10.406;2023-07-31T01:00:41;11.13;;;1.90;;
2858;SDS011;1437;53.250;10.406;2023-07-31T01:03:10;4.60;;;2.70;;
2858;SDS011;1437;53.250;10.406;2023-07-31T01:05:39;4.60;;;1.80;;
2858;SDS011;1437;53.250;10.406;2023-07-31T01:08:12;7.30;;;2.10;;
2858;SDS011;1437;53.250;10.406;2023-07-31T01:10:47;9.73;;;1.90;;
2858;SDS011;1437;53.250;10.406;2023-07-31T01:13:15;10.13;;;2.50;;
2858;SDS011;1437;53.250;10.406;2023-07-31T01:15:45;4.27;;;1.83;;
2858;SDS011;1437;53.250;10.406;2023-07-31T01:18:13;4.73;;;2.10;;
2858;SDS011;1437;53.250;10.406;2023-07-31T01:20:46;5.17;;;2.07;;
2858;SDS011;1437;53.250;10.406;2023-07-31T01:23:25;3.50;;;1.47;;
2858;SDS011;1437;53.250;10.406;2023-07-31T01:25:58;5.70;;;2.50;;
2858;SDS011;1437;53.250;10.406;2023-07-31T01:28:27;6.87;;;2.30;;
2858;SDS011;1437;53.250;10.406;2023-07-31T01:30:59;6.00;;;2.47;;
2858;SDS011;1437;53.250;10.406;2023-07-31T01:33:27;5.03;;;1.87;;
2858;SDS011;1437;53.250;10.406;2023-07-31T01:35:54;4.20;;;2.13;;
2858;SDS011;1437;53.250;10.406;2023-07-31T01:38:23;4.00;;;3.10;;
2858;SDS011;1437;53.250;10.406;2023-07-31T01:40:51;4.40;;;1.90;;
2858;SDS011;1437;53.250;10.406;2023-07-31T01:43:20;6.37;;;2.30;;
2858;SDS011;1437;53.250;10.406;2023-07-31T01:45:48;3.73;;;1.57;;
2858;SDS011;1437;53.250;10.406;2023-07-31T01:48:15;4.43;;;1.77;;
2858;SDS011;1437;53.250;10.406;2023-07-31T01:50:43;4.60;;;1.90;;
2858;SDS011;1437;53.250;10.406;2023-07-31T01:53:11;9.27;;;2.00;;
2858;SDS011;1437;53.250;10.406;2023-07-31T01:55:39;5.83;;;2.33;;
2858;SDS011;1437;53.250;10.406;2023-07-31T01:58:06;5.73;;;2.10;;
2858;SDS011;1437;53.250;10.406;2023-07-31T02:00:35;6.00;;;1.90;;
2858;SDS011;1437;53.250;10.406;2023-07-31T02:03:03;4.30;;;1.70;;
2858;SDS011;1437;53.250;10.406;2023-07-31T02:05:30;4.27;;;2.13;;
2858;SDS011;1437;53.250;10.406;2023-07-31T02:07:58;5.90;;;2.53;;
2858;SDS011;1437;53.250;10.406;2023-07-31T02:10:25;4.80;;;1.80;;
2858;SDS011;1437;53.250;10.406;2023-07-31T02:12:53;4.43;;;1.60;;
2858;SDS011;1437;53.250;10.406;2023-07-31T02:15:20;4.27;;;2.20;;
2858;SDS011;1437;53.250;10.406;2023-07-31T02:17:49;4.10;;;2.30;;
2858;SDS011;1437;53.250;10.406;2023-07-31T02:20:16;4.07;;;1.77;;
2858;SDS011;1437;53.250;10.406;2023-07-31T02:22:44;7.30;;;2.23;;
2858;SDS011;1437;53.250;10.406;2023-07-31T02:25:11;6.60;;;2.33;;
2858;SDS011;1437;53.250;10.406;2023-07-31T02:27:39;8.90;;;2.57;;
2858;SDS011;1437;53.250;10.406;2023-07-31T02:30:07;5.10;;;2.37;;
2858;SDS011;1437;53.250;10.406;2023-07-31T02:32:34;8.93;;;2.50;;
2858;SDS011;1437;53.250;10.406;2023-07-31T02:35:04;4.23;;;1.97;;
2858;SDS011;1437;53.250;10.406;2023-07-31T02:37:31;7.23;;;2.70;;
2858;SDS011;1437;53.250;10.406;2023-07-31T02:39:59;4.80;;;2.53;;
2858;SDS011;1437;53.250;10.406;2023-07-31T02:42:36;4.03;;;2.80;;
2858;SDS011;1437;53.250;10.406;2023-07-31T02:45:06;5.70;;;2.40;;
2858;SDS011;1437;53.250;10.406;2023-07-31T02:47:34;4.50;;;3.10;;
2858;SDS011;1437;53.250;10.406;2023-07-31T02:50:10;6.43;;;3.40;;
2858;SDS011;1437;53.250;10.406;2023-07-31T02:52:37;8.00;;;2.90;;
2858;SDS011;1437;53.250;10.406;2023-07-31T02:55:05;6.00;;;3.70;;
2858;SDS011;1437;53.250;10.406;2023-07-31T02:57:33;6.10;;;5.23;;
2858;SDS011;1437;53.250;10.406;2023-07-31T03:00:00;7.30;;;3.60;;
2858;SDS011;1437;53.250;10.406;2023-07-31T03:02:34;7.07;;;3.70;;
2858;SDS011;1437;53.250;10.406;2023-07-31T03:05:02;9.33;;;3.93;;
2858;SDS011;1437;53.250;10.406;2023-07-31T03:07:31;5.17;;;3.70;;
2858;SDS011;1437;53.250;10.406;2023-07-31T03:09:58;6.57;;;4.90;;
2858;SDS011;1437;53.250;10.406;2023-07-31T03:12:26;10.27;;;4.13;;
2858;SDS011;1437;53.250;10.406;2023-07-31T03:14:53;6.63;;;4.40;;
2858;SDS011;1437;53.250;10.406;2023-07-31T03:17:21;5.53;;;4.10;;
2858;SDS011;1437;53.250;10.406;2023-07-31T03:19:48;9.13;;;4.10;;
2858;SDS011;1437;53.250;10.406;2023-07-31T03:22:16;5.60;;;4.70;;
2858;SDS011;1437;53.250;10.406;2023-07-31T03:24:44;7.37;;;4.83;;
2858;SDS011;1437;53.250;10.406;2023-07-31T03:27:12;5.50;;;3.77;;
2858;SDS011;1437;53.250;10.406;2023-07-31T03:29:39;6.27;;;3.87;;
2858;SDS011;1437;53.250;10.406;2023-07-31T03:32:07;7.80;;;4.23;;
2858;SDS011;1437;53.250;10.406;2023-07-31T03:34:34;7.60;;;3.60;;
2858;SDS011;1437;53.250;10.406;2023-07-31T03:37:03;6.93;;;4.00;;
2858;SDS011;1437;53.250;10.406;2023-07-31T03:39:31;5.40;;;4.00;;
2858;SDS011;1437;53.250;10.406;2023-07-31T03:41:59;6.20;;;3.57;;
2858;SDS011;1437;53.250;10.406;2023-07-31T03:44:27;8.63;;;6.93;;
2858;SDS011;1437;53.250;10.406;2023-07-31T03:46:55;4.20;;;3.47;;
2858;SDS011;1437;53.250;10.406;2023-07-31T03:49:22;8.50;;;4.00;;
2858;SDS011;1437;53.250;10.406;2023-07-31T03:51:49;4.33;;;3.90;;
2858;SDS011;1437;53.250;10.406;2023-07-31T03:54:17;4.53;;;3.70;;
2858;SDS011;1437;53.250;10.406;2023-07-31T03:56:45;5.83;;;4.10;;
2858;SDS011;1437;53.250;10.406;2023-07-31T03:59:16;5.00;;;3.27;;
2858;SDS011;1437;53.250;10.406;2023-07-31T04:01:43;4.73;;;3.40;;
2858;SDS011;1437;53.250;10.406;2023-07-31T04:04:11;6.40;;;3.33;;
2858;SDS011;1437;53.250;10.406;2023-07-31T04:06:38;6.70;;;4.00;;
2858;SDS011;1437;53.250;10.406;2023-07-31T04:09:06;5.37;;;3.60;;
2858;SDS011;1437;53.250;10.406;2023-07-31T04:11:33;4.73;;;4.23;;
2858;SDS011;1437;53.250;10.406;2023-07-31T04:14:01;6.73;;;4.40;;
2858;SDS011;1437;53.250;10.406;2023-07-31T04:16:29;5.70;;;3.90;;
2858;SDS011;1437;53.250;10.406;2023-07-31T04:18:57;4.97;;;3.33;;
2858;SDS011;1437;53.250;10.406;2023-07-31T04:21:24;5.20;;;3.87;;
2858;SDS011;1437;53.250;10.406;2023-07-31T04:23:52;6.50;;;4.37;;
2858;SDS011;1437;53.250;10.406;2023-07-31T04:26:21;5.90;;;4.40;;
2858;SDS011;1437;53.250;10.406;2023-07-31T04:28:48;5.27;;;3.90;;
2858;SDS011;1437;53.250;10.406;2023-07-31T04:31:16;5.00;;;4.17;;
2858;SDS011;1437;53.250;10.406;2023-07-31T04:33:45;6.33;;;4.47;;
2858;SDS011;1437;53.250;10.406;2023-07-31T04:36:13;5.40;;;3.43;;
2858;SDS011;1437;53.250;10.406;2023-07-31T04:38:40;7.40;;;3.87;;
2858;SDS011;1437;53.250;10.406;2023-07-31T04:41:08;7.73;;;4.50;;
2858;SDS011;1437;53.250;10.406;2023-07-31T04:43:36;7.63;;;5.00;;
2858;SDS011;1437;53.250;10.406;2023-07-31T04:46:05;7.30;;;3.93;;
2858;SDS011;1437;53.250;10.406;2023-07-31T04:48:32;6.83;;;4.13;;
2858;SDS011;1437;53.250;10.406;2023-07-31T04:51:01;5.60;;;4.67;;
2858;SDS011;1437;53.250;10.406;2023-07-31T04:53:29;7.80;;;3.60;;
2858;SDS011;1437;53.250;10.406;2023-07-31T04:55:56;4.70;;;4.10;;
2858;SDS011;1437;53.250;10.406;2023-07-31T04:58:24;6.80;;;4.53;;
2858;SDS011;1437;53.250;10.406;2023-07-31T05:00:52;4.87;;;3.97;;
2858;SDS011;1437;53.250;10.406;2023-07-31T05:03:19;8.83;;;4.40;;
2858;SDS011;1437;53.250;10.406;2023-07-31T05:05:47;7.70;;;4.50;;
2858;SDS011;1437;53.250;10.406;2023-07-31T05:08:16;4.83;;;3.87;;
2858;SDS011;1437;53.250;10.406;2023-07-31T05:10:43;8.03;;;4.57;;
2858;SDS011;1437;53.250;10.406;2023-07-31T05:13:11;6.50;;;5.23;;
2858;SDS011;1437;53.250;10.406;2023-07-31T05:15:38;5.27;;;3.80;;
2858;SDS011;1437;53.250;10.406;2023-07-31T05:18:06;6.10;;;4.07;;
2858;SDS011;1437;53.250;10.406;2023-07-31T05:20:33;7.33;;;3.77;;
2858;SDS011;1437;53.250;10.406;2023-07-31T05:23:01;6.00;;;3.93;;
2858;SDS011;1437;53.250;10.406;2023-07-31T05:25:30;5.60;;;3.80;;
2858;SDS011;1437;53.250;10.406;2023-07-31T05:27:57;7.03;;;4.27;;
2858;SDS011;1437;53.250;10.406;2023-07-31T05:30:24;5.07;;;3.47;;
2858;SDS011;1437;53.250;10.406;2023-07-31T05:32:52;4.17;;;3.47;;
2858;SDS011;1437;53.250;10.406;2023-07-31T05:35:20;4.47;;;3.20;;
2858;SDS011;1437;53.250;10.406;2023-07-31T05:37:47;7.37;;;4.13;;
2858;SDS011;1437;53.250;10.406;2023-07-31T05:40:15;6.90;;;3.80;;
2858;SDS011;1437;53.250;10.406;2023-07-31T05:42:44;3.90;;;3.33;;
2858;SDS011;1437;53.250;10.406;2023-07-31T05:45:12;5.00;;;3.60;;
2858;SDS011;1437;53.250;10.406;2023-07-31T05:47:41;4.53;;;3.30;;
2858;SDS011;1437;53.250;10.406;2023-07-31T05:50:09;4.50;;;3.13;;
2858;SDS011;1437;53.250;10.406;2023-07-31T05:52:36;5.00;;;3.47;;
2858;SDS011;1437;53.250;10.406;2023-07-31T05:55:04;6.47;;;3.10;;
2858;SDS011;1437;53.250;10.406;2023-07-31T05:57:33;4.33;;;3.07;;
2858;SDS011;1437;53.250;10.406;2023-07-31T06:00:07;4.47;;;3.43;;
2858;SDS011;1437;53.250;10.406;2023-07-31T06:02:35;5.00;;;2.90;;
2858;SDS011;1437;53.250;10.406;2023-07-31T06:05:03;3.83;;;3.17;;
2858;SDS011;1437;53.250;10.406;2023-07-31T06:07:31;4.40;;;2.60;;
2858;SDS011;1437;53.250;10.406;2023-07-31T06:09:59;4.50;;;2.67;;
2858;SDS011;1437;53.250;10.406;2023-07-31T06:12:31;4.13;;;2.70;;
2858;SDS011;1437;53.250;10.406;2023-07-31T06:14:58;6.43;;;2.60;;
2858;SDS011;1437;53.250;10.406;2023-07-31T06:17:27;3.10;;;2.17;;
2858;SDS011;1437;53.250;10.406;2023-07-31T06:19:55;3.40;;;2.23;;
2858;SDS011;1437;53.250;10.406;2023-07-31T06:22:24;3.10;;;2.30;;
2858;SDS011;1437;53.250;10.406;2023-07-31T06:24:51;4.40;;;2.50;;
2858;SDS011;1437;53.250;10.406;2023-07-31T06:27:19;3.03;;;2.00;;
2858;SDS011;1437;53.250;10.406;2023-07-31T06:29:46;4.53;;;2.10;;
2858;SDS011;1437;53.250;10.406;2023-07-31T06:32:14;3.20;;;1.90;;
2858;SDS011;1437;53.250;10.406;2023-07-31T06:34:47;2.93;;;1.70;;
2858;SDS011;1437;53.250;10.406;2023-07-31T06:37:15;3.27;;;1.80;;
2858;SDS011;1437;53.250;10.406;2023-07-31T06:39:43;4.87;;;2.00;;
2858;SDS011;1437;53.250;10.406;2023-07-31T06:42:10;4.33;;;2.37;;
2858;SDS011;1437;53.250;10.406;2023-07-31T06:44:39;2.80;;;1.50;;
2858;SDS011;1437;53.250;10.406;2023-07-31T06:47:11;2.90;;;1.60;;
2858;SDS011;1437;53.250;10.406;2023-07-31T06:49:39;6.30;;;1.50;;
2858;SDS011;1437;53.250;10.406;2023-07-31T06:52:08;5.37;;;3.20;;
2858;SDS011;1437;53.250;10.406;2023-07-31T06:54:36;3.30;;;1.40;;
2858;SDS011;1437;53.250;10.406;2023-07-31T06:57:04;2.90;;;1.47;;
2858;SDS011;1437;53.250;10.406;2023-07-31T06:59:39;3.70;;;1.50;;
2858;SDS011;1437;53.250;10.406;2023-07-31T07:02:06;3.57;;;2.00;;
2858;SDS011;1437;53.250;10.406;2023-07-31T07:04:40;2.40;;;1.10;;
2858;SDS011;1437;53.250;10.406;2023-07-31T07:07:08;2.57;;;1.23;;
2858;SDS011;1437;53.250;10.406;2023-07-31T07:09:36;2.60;;;1.20;;
2858;SDS011;1437;53.250;10.406;2023-07-31T07:12:04;3.27;;;1.77;;
2858;SDS011;1437;53.250;10.406;2023-07-31T07:14:33;2.30;;;1.10;;
2858;SDS011;1437;53.250;10.406;2023-07-31T07:17:00;2.50;;;0.87;;
2858;SDS011;1437;53.250;10.406;2023-07-31T07:19:29;2.30;;;0.93;;
2858;SDS011;1437;53.250;10.406;2023-07-31T07:21:58;2.53;;;1.10;;
2858;SDS011;1437;53.250;10.406;2023-07-31T07:24:28;2.70;;;1.60;;
2858;SDS011;1437;53.250;10.406;2023-07-31T07:26:56;2.67;;;1.10;;
2858;SDS011;1437;53.250;10.406;2023-07-31T07:29:23;2.60;;;1.40;;
2858;SDS011;1437;53.250;10.406;2023-07-31T07:31:52;4.93;;;1.30;;
2858;SDS011;1437;53.250;10.406;2023-07-31T07:34:22;3.10;;;1.10;;
2858;SDS011;1437;53.250;10.406;2023-07-31T07:36:51;2.30;;;1.07;;
2858;SDS011;1437;53.250;10.406;2023-07-31T07:39:20;2.50;;;1.30;;
2858;SDS011;1437;53.250;10.406;2023-07-31T07:41:49;3.40;;;1.20;;
2858;SDS011;1437;53.250;10.406;2023-07-31T07:44:18;2.60;;;1.30;;
2858;SDS011;1437;53.250;10.406;2023-07-31T07:46:46;2.83;;;1.00;;
2858;SDS011;1437;53.250;10.406;2023-07-31T07:49:13;3.87;;;1.17;;
2858;SDS011;1437;53.250;10.406;2023-07-31T07:51:41;6.03;;;0.90;;
2858;SDS011;1437;53.250;10.406;2023-07-31T07:54:09;3.53;;;1.63;;
2858;SDS011;1437;53.250;10.406;2023-07-31T07:56:37;2.50;;;0.97;;
2858;SDS011;1437;53.250;10.406;2023-07-31T07:59:07;3.00;;;1.50;;
2858;SDS011;1437;53.250;10.406;2023-07-31T08:01:42;2.40;;;1.20;;
2858;SDS011;1437;53.250;10.406;2023-07-31T08:04:22;2.60;;;0.87;;
2858;SDS011;1437;53.250;10.406;2023-07-31T08:06:53;4.73;;;0.90;;
2858;SDS011;1437;53.250;10.406;2023-07-31T08:09:21;3.03;;;0.90;;
2858;SDS011;1437;53.250;10.406;2023-07-31T08:11:49;1.93;;;0.80;;
2858;SDS011;1437;53.250;10.406;2023-07-31T08:14:18;2.67;;;1.03;;
2858;SDS011;1437;53.250;10.406;2023-07-31T08:16:46;2.60;;;1.10;;
2858;SDS011;1437;53.250;10.406;2023-07-31T08:19:14;3.90;;;1.67;;
2858;SDS011;1437;53.250;10.406;2023-07-31T08:21:42;3.53;;;0.97;;
2858;SDS011;1437;53.250;10.406;2023-07-31T08:24:12;2.60;;;1.20;;
2858;SDS011;1437;53.250;10.406;2023-07-31T08:26:40;2.50;;;1.60;;
2858;SDS011;1437;53.250;10.406;2023-07-31T08:29:09;5.53;;;2.80;;
2858;SDS011;1437;53.250;10.406;2023-07-31T08:31:39;11.43;;;7.47;;
2858;SDS011;1437;53.250;10.406;2023-07-31T08:34:06;3.93;;;1.67;;
2858;SDS011;1437;53.250;10.406;2023-07-31T08:36:35;2.20;;;1.10;;
2858;SDS011;1437;53.250;10.406;2023-07-31T08:39:03;1.90;;;0.70;;
2858;SDS011;1437;53.250;10.406;2023-07-31T08:41:31;2.10;;;0.80;;
2858;SDS011;1437;53.250;10.406;2023-07-31T08:44:04;2.20;;;0.87;;
2858;SDS011;1437;53.250;10.406;2023-07-31T08:46:33;3.47;;;1.00;;
2858;SDS011;1437;53.250;10.406;2023-07-31T08:49:03;2.93;;;1.17;;
2858;SDS011;1437;53.250;10.406;2023-07-31T08:51:33;2.40;;;1.03;;
2858;SDS011;1437;53.250;10.406;2023-07-31T08:54:04;2.40;;;1.30;;
2858;SDS011;1437;53.250;10.406;2023-07-31T08:56:39;4.37;;;2.33;;
2858;SDS011;1437;53.250;10.406;2023-07-31T08:59:09;3.40;;;1.70;;
2858;SDS011;1437;53.250;10.406;2023-07-31T09:01:43;2.50;;;1.30;;
2858;SDS011;1437;53.250;10.406;2023-07-31T09:04:13;3.00;;;1.57;;
2858;SDS011;1437;53.250;10.406;2023-07-31T09:06:41;4.30;;;2.80;;
2858;SDS011;1437;53.250;10.406;2023-07-31T09:09:09;1.90;;;0.90;;
2858;SDS011;1437;53.250;10.406;2023-07-31T09:11:37;4.47;;;1.10;;
2858;SDS011;1437;53.250;10.406;2023-07-31T09:14:04;2.93;;;1.43;;
2858;SDS011;1437;53.250;10.406;2023-07-31T09:16:34;2.70;;;1.10;;
2858;SDS011;1437;53.250;10.406;2023-07-31T09:19:01;3.60;;;2.03;;
2858;SDS011;1437;53.250;10.406;2023-07-31T09:21:31;2.57;;;0.60;;
2858;SDS011;1437;53.250;10.406;2023-07-31T09:23:59;3.50;;;1.30;;
2858;SDS011;1437;53.250;10.406;2023-07-31T09:26:30;3.57;;;1.60;;
2858;SDS011;1437;53.250;10.406;2023-07-31T09:29:00;2.20;;;0.90;;
2858;SDS011;1437;53.250;10.406;2023-07-31T09:31:33;2.40;;;1.13;;
2858;SDS011;1437;53.250;10.406;2023-07-31T09:34:02;2.93;;;0.90;;
2858;SDS011;1437;53.250;10.406;2023-07-31T09:36:33;3.70;;;1.40;;
2858;SDS011;1437;53.250;10.406;2023-07-31T09:39:09;3.47;;;1.40;;
2858;SDS011;1437;53.250;10.406;2023-07-31T09:41:41;7.07;;;2.53;;
2858;SDS011;1437;53.250;10.406;2023-07-31T09:44:09;4.13;;;2.03;;
2858;SDS011;1437;53.250;10.406;2023-07-31T09:46:37;3.50;;;2.10;;
2858;SDS011;1437;53.250;10.406;2023-07-31T09:49:06;4.70;;;2.30;;
2858;SDS011;1437;53.250;10.406;2023-07-31T09:51:35;5.10;;;2.60;;
2858;SDS011;1437;53.250;10.406;2023-07-31T09:54:08;4.40;;;2.83;;
2858;SDS011;1437;53.250;10.406;2023-07-31T09:56:41;6.97;;;3.40;;
2858;SDS011;1437;53.250;10.406;2023-07-31T09:59:13;9.50;;;4.10;;
2858;SDS011;1437;53.250;10.406;2023-07-31T10:01:43;8.93;;;3.67;;
2858;SDS011;1437;53.250;10.406;2023-07-31T10:04:15;10.10;;;6.40;;
2858;SDS011;1437;53.250;10.406;2023-07-31T10:06:52;8.03;;;3.93;;
2858;SDS011;1437;53.250;10.406;2023-07-31T10:09:24;10.40;;;5.00;;
2858;SDS011;1437;53.250;10.406;2023-07-31T10:12:00;7.60;;;4.13;;
2858;SDS011;1437;53.250;10.406;2023-07-31T10:14:32;11.90;;;5.90;;
2858;SDS011;1437;53.250;10.406;2023-07-31T10:17:00;9.03;;;4.90;;
2858;SDS011;1437;53.250;10.406;2023-07-31T10:19:28;6.77;;;4.50;;
2858;SDS011;1437;53.250;10.406;2023-07-31T10:22:00;8.00;;;4.33;;
2858;SDS011;1437;53.250;10.406;2023-07-31T10:24:34;9.70;;;4.13;;
2858;SDS011;1437;53.250;10.406;2023-07-31T10:27:08;7.40;;;4.97;;
2858;SDS011;1437;53.250;10.406;2023-07-31T10:29:39;10.43;;;4.90;;
2858;SDS011;1437;53.250;10.406;2023-07-31T10:32:10;8.43;;;4.60;;
2858;SDS011;1437;53.250;10.406;2023-07-31T10:34:39;10.60;;;3.67;;
2858;SDS011;1437;53.250;10.406;2023-07-31T10:37:21;7.70;;;3.77;;
2858;SDS011;1437;53.250;10.406;2023-07-31T10:39:58;8.30;;;4.77;;
2858;SDS011;1437;53.250;10.406;2023-07-31T10:42:36;8.80;;;4.97;;
2858;SDS011;1437;53.250;10.406;2023-07-31T10:45:08;8.10;;;4.20;;
2858;SDS011;1437;53.250;10.406;2023-07-31T10:47:42;10.07;;;4.73;;
2858;SDS011;1437;53.250;10.406;2023-07-31T10:50:17;6.37;;;3.53;;
2858;SDS011;1437;53.250;10.406;2023-07-31T10:52:58;10.50;;;4.07;;
2858;SDS011;1437;53.250;10.406;2023-07-31T10:55:30;9.90;;;3.37;;
2858;SDS011;1437;53.250;10.406;2023-07-31T10:58:05;6.13;;;4.27;;
2858;SDS011;1437;53.250;10.406;2023-07-31T11:00:37;5.90;;;3.93;;
2858;SDS011;1437;53.250;10.406;2023-07-31T11:03:05;18.50;;;5.30;;
2858;SDS011;1437;53.250;10.406;2023-07-31T11:05:44;8.20;;;3.40;;
2858;SDS011;1437;53.250;10.406;2023-07-31T11:08:14;11.77;;;5.03;;
2858;SDS011;1437;53.250;10.406;2023-07-31T11:10:42;10.00;;;4.83;;
2858;SDS011;1437;53.250;10.406;2023-07-31T11:13:10;8.30;;;4.27;;
2858;SDS011;1437;53.250;10.406;2023-07-31T11:15:37;11.80;;;4.43;;
2858;SDS011;1437;53.250;10.406;2023-07-31T11:18:05;7.07;;;4.10;;
2858;SDS011;1437;53.250;10.406;2023-07-31T11:20:36;6.70;;;4.27;;
2858;SDS011;1437;53.250;10.406;2023-07-31T11:23:04;8.07;;;4.53;;
2858;SDS011;1437;53.250;10.406;2023-07-31T11:25:35;8.40;;;3.70;;
2858;SDS011;1437;53.250;10.406;2023-07-31T11:28:03;10.57;;;4.27;;
2858;SDS011;1437;53.250;10.406;2023-07-31T11:30:31;7.53;;;4.20;;
2858;SDS011;1437;53.250;10.406;2023-07-31T11:32:59;5.60;;;3.20;;
2858;SDS011;1437;53.250;10.406;2023-07-31T11:35:33;8.00;;;4.03;;
2858;SDS011;1437;53.250;10.406;2023-07-31T11:38:02;4.10;;;2.33;;
2858;SDS011;1437;53.250;10.406;2023-07-31T11:40:30;8.10;;;2.67;;
2858;SDS011;1437;53.250;10.406;2023-07-31T11:43:09;3.77;;;2.37;;
2858;SDS011;1437;53.250;10.406;2023-07-31T11:45:44;4.27;;;2.60;;
2858;SDS011;1437;53.250;10.406;2023-07-31T11:48:18;6.60;;;2.80;;
2858;SDS011;1437;53.250;10.406;2023-07-31T11:50:47;4.97;;;2.93;;
2858;SDS011;1437;53.250;10.406;2023-07-31T11:53:17;7.03;;;3.70;;
2858;SDS011;1437;53.250;10.406;2023-07-31T11:55:48;5.17;;;2.30;;
2858;SDS011;1437;53.250;10.406;2023-07-31T11:58:18;10.87;;;3.17;;
2858;SDS011;1437;53.250;10.406;2023-07-31T12:00:48;8.13;;;2.63;;
2858;SDS011;1437;53.250;10.406;2023-07-31T12:03:16;3.63;;;1.93;;
2858;SDS011;1437;53.250;10.406;2023-07-31T12:05:48;3.40;;;2.17;;
2858;SDS011;1437;53.250;10.406;2023-07-31T12:08:16;4.73;;;1.90;;
2858;SDS011;1437;53.250;10.406;2023-07-31T12:10:44;3.90;;;2.10;;
2858;SDS011;1437;53.250;10.406;2023-07-31T12:13:21;3.60;;;1.70;;
2858;SDS011;1437;53.250;10.406;2023-07-31T12:15:53;3.90;;;2.00;;
2858;SDS011;1437;53.250;10.406;2023-07-31T12:18:23;3.10;;;1.73;;
2858;SDS011;1437;53.250;10.406;2023-07-31T12:20:54;3.17;;;1.70;;
2858;SDS011;1437;53.250;10.406;2023-07-31T12:23:28;3.23;;;1.77;;
2858;SDS011;1437;53.250;10.406;2023-07-31T12:26:00;3.23;;;1.90;;
2858;SDS011;1437;53.250;10.406;2023-07-31T12:28:29;4.83;;;2.00;;
2858;SDS011;1437;53.250;10.406;2023-07-31T12:30:57;4.40;;;2.07;;
2858;SDS011;1437;53.250;10.406;2023-07-31T12:33:30;3.40;;;1.90;;
2858;SDS011;1437;53.250;10.406;2023-07-31T12:36:01;3.40;;;1.70;;
2858;SDS011;1437;53.250;10.406;2023-07-31T12:38:29;3.50;;;1.80;;
2858;SDS011;1437;53.250;10.406;2023-07-31T12:40:58;2.57;;;1.50;;
2858;SDS011;1437;53.250;10.406;2023-07-31T12:46:31;5.73;;;1.83;;
2858;SDS011;1437;53.250;10.406;2023-07-31T12:48:59;3.20;;;2.00;;
2858;SDS011;1437;53.250;10.406;2023-07-31T12:51:27;2.87;;;1.30;;
2858;SDS011;1437;53.250;10.406;2023-07-31T12:53:57;4.80;;;1.97;;
2858;SDS011;1437;53.250;10.406;2023-07-31T12:59:21;3.00;;;1.60;;
2858;SDS011;1437;53.250;10.406;2023-07-31T13:01:50;3.40;;;1.90;;
2858;SDS011;1437;53.250;10.406;2023-07-31T13:04:18;4.27;;;1.90;;
2858;SDS011;1437;53.250;10.406;2023-07-31T13:06:53;6.83;;;4.47;;
2858;SDS011;1437;53.250;10.406;2023-07-31T13:09:23;4.43;;;2.17;;
2858;SDS011;1437;53.250;10.406;2023-07-31T13:11:54;3.47;;;1.80;;
2858;SDS011;1437;53.250;10.406;2023-07-31T13:14:22;2.87;;;1.80;;
2858;SDS011;1437;53.250;10.406;2023-07-31T13:16:52;4.80;;;2.13;;
2858;SDS011;1437;53.250;10.406;2023-07-31T13:19:21;4.03;;;1.97;;
2858;SDS011;1437;53.250;10.406;2023-07-31T13:21:50;5.00;;;2.93;;
2858;SDS011;1437;53.250;10.406;2023-07-31T13:24:19;4.10;;;2.30;;
2858;SDS011;1437;53.250;10.406;2023-07-31T13:26:48;5.60;;;2.60;;
2858;SDS011;1437;53.250;10.406;2023-07-31T13:29:15;3.77;;;2.70;;
2858;SDS011;1437;53.250;10.406;2023-07-31T13:31:43;12.70;;;11.23;;
2858;SDS011;1437;53.250;10.406;2023-07-31T13:34:12;3.80;;;2.53;;
2858;SDS011;1437;53.250;10.406;2023-07-31T13:36:40;2.90;;;1.50;;
2858;SDS011;1437;53.250;10.406;2023-07-31T13:39:08;3.53;;;1.30;;
2858;SDS011;1437;53.250;10.406;2023-07-31T13:41:35;3.43;;;2.27;;
2858;SDS011;1437;53.250;10.406;2023-07-31T13:44:03;3.53;;;2.60;;
2858;SDS011;1437;53.250;10.406;2023-07-31T13:46:30;5.60;;;3.30;;
2858;SDS011;1437;53.250;10.406;2023-07-31T13:48:58;2.50;;;1.57;;
2858;SDS011;1437;53.250;10.406;2023-07-31T13:51:29;2.73;;;1.57;;
2858;SDS011;1437;53.250;10.406;2023-07-31T13:54:04;9.77;;;4.93;;
2858;SDS011;1437;53.250;10.406;2023-07-31T13:56:34;3.73;;;2.33;;
2858;SDS011;1437;53.250;10.406;2023-07-31T13:59:05;3.83;;;2.13;;
2858;SDS011;1437;53.250;10.406;2023-07-31T14:01:33;3.57;;;1.70;;
2858;SDS011;1437;53.250;10.406;2023-07-31T14:04:05;3.37;;;1.67;;
2858;SDS011;1437;53.250;10.406;2023-07-31T14:06:37;2.47;;;1.30;;
2858;SDS011;1437;53.250;10.406;2023-07-31T14:09:05;3.00;;;1.47;;
2858;SDS011;1437;53.250;10.406;2023-07-31T14:11:33;2.90;;;1.43;;
2858;SDS011;1437;53.250;10.406;2023-07-31T14:14:01;2.40;;;1.30;;
2858;SDS011;1437;53.250;10.406;2023-07-31T14:16:30;2.20;;;1.10;;
2858;SDS011;1437;53.250;10.406;2023-07-31T14:18:58;3.00;;;1.60;;
2858;SDS011;1437;53.250;10.406;2023-07-31T14:21:25;3.70;;;2.00;;
2858;SDS011;1437;53.250;10.406;2023-07-31T14:23:56;4.13;;;1.50;;
2858;SDS011;1437;53.250;10.406;2023-07-31T14:26:27;3.80;;;1.70;;
2858;SDS011;1437;53.250;10.406;2023-07-31T14:28:58;2.83;;;1.80;;
2858;SDS011;1437;53.250;10.406;2023-07-31T14:31:26;2.70;;;1.40;;
2858;SDS011;1437;53.250;10.406;2023-07-31T14:33:54;3.00;;;1.80;;
2858;SDS011;1437;53.250;10.406;2023-07-31T14:36:22;3.50;;;2.10;;
2858;SDS011;1437;53.250;10.406;2023-07-31T14:38:51;3.30;;;2.30;;
2858;SDS011;1437;53.250;10.406;2023-07-31T14:41:26;3.40;;;2.47;;
2858;SDS011;1437;53.250;10.406;2023-07-31T14:43:59;3.67;;;2.50;;
2858;SDS011;1437;53.250;10.406;2023-07-31T14:46:30;2.77;;;1.93;;
2858;SDS011;1437;53.250;10.406;2023-07-31T14:48:58;3.50;;;2.10;;
2858;SDS011;1437;53.250;10.406;2023-07-31T14:51:32;3.80;;;2.50;;
2858;SDS011;1437;53.250;10.406;2023-07-31T14:54:08;3.60;;;2.20;;
2858;SDS011;1437;53.250;10.406;2023-07-31T14:56:40;5.00;;;2.70;;
2858;SDS011;1437;53.250;10.406;2023-07-31T14:59:09;4.40;;;2.60;;
2858;SDS011;1437;53.250;10.406;2023-07-31T15:04:46;3.20;;;2.30;;
2858;SDS011;1437;53.250;10.406;2023-07-31T15:09:50;3.20;;;2.20;;
2858;SDS011;1437;53.250;10.406;2023-07-31T15:27:21;4.37;;;2.80;;
2858;SDS011;1437;53.250;10.406;2023-07-31T15:30:14;3.47;;;2.60;;
2858;SDS011;1437;53.250;10.406;2023-07-31T15:33:00;4.17;;;3.10;;
2858;SDS011;1437;53.250;10.406;2023-07-31T15:35:39;5.23;;;3.20;;
2858;SDS011;1437;53.250;10.406;2023-07-31T15:38:31;4.30;;;2.67;;
2858;SDS011;1437;53.250;10.406;2023-07-31T15:41:42;6.33;;;3.43;;